sensor_id;sensor_type;location;lat;lon;timestamp;pressure;altitude;pressure_sealevel;temperature;humidity
48630;BME280;34426;52.180;4.462;2023-07-13T00:01:59;101382.66;;;17.94;71.97
48630;BME280;34426;52.180;4.462;2023-07-13T00:04:25;101386.03;;;17.96;71.35
48630;BME280;34426;52.180;4.462;2023-07-13T00:06:54;101380.97;;;17.93;71.20
48630;BME280;34426;52.180;4.462;2023-07-13T00:09:21;101379.59;;;17.90;72.09
48630;BME280;34426;52.180;4.462;2023-07-13T00:11:51;101392.28;;;17.93;72.20
48630;BME280;34426;52.180;4.462;2023-07-13T00:14:18;101392.59;;;17.91;72.20
48630;BME280;34426;52.180;4.462;2023-07-13T00:16:44;101390.84;;;17.95;72.27
48630;BME280;34426;52.180;4.462;2023-07-13T00:19:09;101402.47;;;17.94;72.31
48630;BME280;34426;52.180;4.462;2023-07-13T00:21:35;101394.34;;;17.87;72.94
48630;BME280;34426;52.180;4.462;2023-07-13T00:24:03;101391.44;;;17.92;73.10
48630;BME280;34426;52.180;4.462;2023-07-13T00:26:29;101397.72;;;17.89;73.10
48630;BME280;34426;52.180;4.462;2023-07-13T00:28:55;101400.56;;;17.89;73.64
48630;BME280;34426;52.180;4.462;2023-07-13T00:31:21;101399.47;;;17.85;74.16
48630;BME280;34426;52.180;4.462;2023-07-13T00:33:47;101396.88;;;17.89;74.62
48630;BME280;34426;52.180;4.462;2023-07-13T00:36:19;101389.53;;;17.88;74.66
48630;BME280;34426;52.180;4.462;2023-07-13T00:38:45;101409.66;;;17.86;74.89
48630;BME280;34426;52.180;4.462;2023-07-13T00:41:12;101396.03;;;17.88;74.04
48630;BME280;34426;52.180;4.462;2023-07-13T00:43:38;101400.06;;;17.82;73.66
48630;BME280;34426;52.180;4.462;2023-07-13T00:46:16;101402.47;;;17.75;73.49
48630;BME280;34426;52.180;4.462;2023-07-13T00:48:44;101402.47;;;17.75;72.94
48630;BME280;34426;52.180;4.462;2023-07-13T00:51:12;101401.97;;;17.68;73.07
48630;BME280;34426;52.180;4.462;2023-07-13T00:53:39;101401.47;;;17.61;73.66
48630;BME280;34426;52.180;4.462;2023-07-13T00:56:05;101398.47;;;17.52;74.53
48630;BME280;34426;52.180;4.462;2023-07-13T00:58:33;101400.75;;;17.50;74.61
48630;BME280;34426;52.180;4.462;2023-07-13T01:00:59;101395.31;;;17.54;74.48
48630;BME280;34426;52.180;4.462;2023-07-13T01:03:28;101402.50;;;17.46;74.64
48630;BME280;34426;52.180;4.462;2023-07-13T01:05:53;101410.69;;;17.48;74.43
48630;BME280;34426;52.180;4.462;2023-07-13T01:08:20;101407.34;;;17.41;74.69
48630;BME280;34426;52.180;4.462;2023-07-13T01:10:53;101407.31;;;17.46;74.05
48630;BME280;34426;52.180;4.462;2023-07-13T01:13:19;101409.03;;;17.42;73.76
48630;BME280;34426;52.180;4.462;2023-07-13T01:15:48;101404.00;;;17.39;73.58
48630;BME280;34426;52.180;4.462;2023-07-13T01:18:16;101407.25;;;17.27;73.88
48630;BME280;34426;52.180;4.462;2023-07-13T01:20:53;101403.88;;;17.25;73.58
48630;BME280;34426;52.180;4.462;2023-07-13T01:23:19;101402.44;;;17.27;73.11
48630;BME280;34426;52.180;4.462;2023-07-13T01:25:45;101403.28;;;17.28;72.45
48630;BME280;34426;52.180;4.462;2023-07-13T01:28:11;101407.84;;;17.24;72.84
48630;BME280;34426;52.180;4.462;2023-07-13T01:30:38;101403.97;;;17.15;73.51
48630;BME280;34426;52.180;4.462;2023-07-13T01:33:04;101406.50;;;17.16;73.81
48630;BME280;34426;52.180;4.462;2023-07-13T01:35:30;101418.75;;;17.07;74.28
48630;BME280;34426;52.180;4.462;2023-07-13T01:37:59;101424.66;;;17.10;74.49
48630;BME280;34426;52.180;4.462;2023-07-13T01:40:25;101417.91;;;17.06;74.95
48630;BME280;34426;52.180;4.462;2023-07-13T01:42:50;101427.28;;;17.02;75.26
48630;BME280;34426;52.180;4.462;2023-07-13T01:45:16;101417.97;;;17.01;75.45
48630;BME280;34426;52.180;4.462;2023-07-13T01:47:42;101424.22;;;16.98;75.76
48630;BME280;34426;52.180;4.462;2023-07-13T01:50:09;101423.66;;;16.96;75.91
48630;BME280;34426;52.180;4.462;2023-07-13T01:52:35;101423.41;;;16.92;76.10
48630;BME280;34426;52.180;4.462;2023-07-13T01:55:03;101425.47;;;16.87;76.27
48630;BME280;34426;52.180;4.462;2023-07-13T01:57:29;101429.47;;;16.81;76.93
48630;BME280;34426;52.180;4.462;2023-07-13T01:59:55;101427.84;;;16.75;77.25
48630;BME280;34426;52.180;4.462;2023-07-13T02:02:20;101421.34;;;16.74;77.58
48630;BME280;34426;52.180;4.462;2023-07-13T02:04:46;101423.31;;;16.74;77.55
48630;BME280;34426;52.180;4.462;2023-07-13T02:07:15;101431.25;;;16.72;77.75
48630;BME280;34426;52.180;4.462;2023-07-13T02:09:44;101428.41;;;16.72;78.12
48630;BME280;34426;52.180;4.462;2023-07-13T02:12:12;101430.66;;;16.75;78.15
48630;BME280;34426;52.180;4.462;2023-07-13T02:14:38;101432.09;;;16.72;78.30
48630;BME280;34426;52.180;4.462;2023-07-13T02:17:04;101432.63;;;16.74;78.51
48630;BME280;34426;52.180;4.462;2023-07-13T02:19:29;101432.38;;;16.71;78.77
48630;BME280;34426;52.180;4.462;2023-07-13T02:21:56;101441.69;;;16.71;78.75
48630;BME280;34426;52.180;4.462;2023-07-13T02:24:21;101439.75;;;16.61;79.39
48630;BME280;34426;52.180;4.462;2023-07-13T02:26:48;101436.38;;;16.59;79.75
48630;BME280;34426;52.180;4.462;2023-07-13T02:29:15;101435.84;;;16.57;80.16
48630;BME280;34426;52.180;4.462;2023-07-13T02:31:41;101439.84;;;16.51;80.46
48630;BME280;34426;52.180;4.462;2023-07-13T02:34:07;101431.31;;;16.56;80.72
48630;BME280;34426;52.180;4.462;2023-07-13T02:36:35;101438.09;;;16.55;81.06
48630;BME280;34426;52.180;4.462;2023-07-13T02:39:02;101437.22;;;16.60;81.04
48630;BME280;34426;52.180;4.462;2023-07-13T02:41:29;101435.28;;;16.55;81.28
48630;BME280;34426;52.180;4.462;2023-07-13T02:43:54;101435.81;;;16.62;81.32
48630;BME280;34426;52.180;4.462;2023-07-13T02:46:22;101429.31;;;16.67;81.51
48630;BME280;34426;52.180;4.462;2023-07-13T02:48:48;101436.94;;;16.67;81.71
48630;BME280;34426;52.180;4.462;2023-07-13T02:51:13;101431.78;;;16.74;81.38
48630;BME280;34426;52.180;4.462;2023-07-13T02:53:39;101440.22;;;16.79;81.29
48630;BME280;34426;52.180;4.462;2023-07-13T02:56:11;101437.38;;;16.84;81.31
48630;BME280;34426;52.180;4.462;2023-07-13T02:58:37;101437.91;;;16.86;81.14
48630;BME280;34426;52.180;4.462;2023-07-13T03:01:08;101438.22;;;16.84;81.18
48630;BME280;34426;52.180;4.462;2023-07-13T03:03:36;101438.47;;;16.88;81.55
48630;BME280;34426;52.180;4.462;2023-07-13T03:06:03;101430.50;;;16.90;81.92
48630;BME280;34426;52.180;4.462;2023-07-13T03:08:35;101438.47;;;16.88;82.30
48630;BME280;34426;52.180;4.462;2023-07-13T03:11:01;101440.78;;;16.81;82.94
48630;BME280;34426;52.180;4.462;2023-07-13T03:13:27;101445.25;;;16.87;83.33
48630;BME280;34426;52.180;4.462;2023-07-13T03:15:53;101449.13;;;16.91;83.59
48630;BME280;34426;52.180;4.462;2023-07-13T03:18:19;101447.47;;;16.90;83.98
48630;BME280;34426;52.180;4.462;2023-07-13T03:20:46;101447.47;;;16.90;84.50
48630;BME280;34426;52.180;4.462;2023-07-13T03:23:15;101449.47;;;16.89;85.10
48630;BME280;34426;52.180;4.462;2023-07-13T03:25:41;101444.13;;;16.88;85.38
48630;BME280;34426;52.180;4.462;2023-07-13T03:28:07;101440.75;;;16.86;85.70
48630;BME280;34426;52.180;4.462;2023-07-13T03:30:35;101443.00;;;16.84;85.95
48630;BME280;34426;52.180;4.462;2023-07-13T03:33:01;101438.47;;;16.88;86.46
48630;BME280;34426;52.180;4.462;2023-07-13T03:35:27;101449.69;;;16.93;86.47
48630;BME280;34426;52.180;4.462;2023-07-13T03:37:54;101445.81;;;16.89;86.44
48630;BME280;34426;52.180;4.462;2023-07-13T03:40:23;101449.66;;;16.98;86.70
48630;BME280;34426;52.180;4.462;2023-07-13T03:42:50;101447.97;;;16.97;86.89
48630;BME280;34426;52.180;4.462;2023-07-13T03:45:16;101448.50;;;16.99;86.80
48630;BME280;34426;52.180;4.462;2023-07-13T03:47:42;101449.91;;;17.02;86.97
48630;BME280;34426;52.180;4.462;2023-07-13T03:50:11;101455.81;;;17.05;86.77
48630;BME280;34426;52.180;4.462;2023-07-13T03:52:37;101455.81;;;17.05;86.95
48630;BME280;34426;52.180;4.462;2023-07-13T03:55:04;101451.84;;;17.06;86.72
48630;BME280;34426;52.180;4.462;2023-07-13T03:57:30;101453.28;;;17.04;87.13
48630;BME280;34426;52.180;4.462;2023-07-13T03:59:56;101454.66;;;17.06;87.01
48630;BME280;34426;52.180;4.462;2023-07-13T04:02:21;101454.66;;;17.06;87.05
48630;BME280;34426;52.180;4.462;2023-07-13T04:04:47;101454.13;;;17.04;87.11
48630;BME280;34426;52.180;4.462;2023-07-13T04:07:13;101460.63;;;17.05;87.07
48630;BME280;34426;52.180;4.462;2023-07-13T04:09:39;101466.22;;;17.10;86.82
48630;BME280;34426;52.180;4.462;2023-07-13T04:12:07;101460.28;;;17.11;86.48
48630;BME280;34426;52.180;4.462;2023-07-13T04:14:32;101469.25;;;17.18;86.08
48630;BME280;34426;52.180;4.462;2023-07-13T04:17:01;101460.78;;;17.18;85.92
48630;BME280;34426;52.180;4.462;2023-07-13T04:19:26;101466.69;;;17.22;85.63
48630;BME280;34426;52.180;4.462;2023-07-13T04:21:52;101466.38;;;17.23;85.63
48630;BME280;34426;52.180;4.462;2023-07-13T04:24:18;101471.50;;;17.21;85.38
48630;BME280;34426;52.180;4.462;2023-07-13T04:26:46;101472.59;;;17.25;85.12
48630;BME280;34426;52.180;4.462;2023-07-13T04:29:13;101471.75;;;17.25;85.35
48630;BME280;34426;52.180;4.462;2023-07-13T04:31:39;101474.53;;;17.30;84.37
48630;BME280;34426;52.180;4.462;2023-07-13T04:34:05;101469.47;;;17.27;84.44
48630;BME280;34426;52.180;4.462;2023-07-13T04:36:30;101474.28;;;17.26;84.54
48630;BME280;34426;52.180;4.462;2023-07-13T04:38:56;101482.22;;;17.24;84.62
48630;BME280;34426;52.180;4.462;2023-07-13T04:41:22;101477.06;;;17.32;83.92
48630;BME280;34426;52.180;4.462;2023-07-13T04:43:48;101479.34;;;17.29;84.25
48630;BME280;34426;52.180;4.462;2023-07-13T04:46:16;101479.34;;;17.29;83.74
48630;BME280;34426;52.180;4.462;2023-07-13T04:48:43;101484.50;;;17.22;83.67
48630;BME280;34426;52.180;4.462;2023-07-13T04:51:10;101492.97;;;17.22;83.78
48630;BME280;34426;52.180;4.462;2023-07-13T04:53:36;101491.84;;;17.23;83.50
48630;BME280;34426;52.180;4.462;2023-07-13T04:56:02;101492.66;;;17.24;83.00
48630;BME280;34426;52.180;4.462;2023-07-13T04:58:28;101501.09;;;17.29;82.60
48630;BME280;34426;52.180;4.462;2023-07-13T05:01:02;101501.88;;;17.35;81.81
48630;BME280;34426;52.180;4.462;2023-07-13T05:03:32;101506.38;;;17.36;81.92
48630;BME280;34426;52.180;4.462;2023-07-13T05:05:59;101507.69;;;17.48;81.26
48630;BME280;34426;52.180;4.462;2023-07-13T05:08:25;101503.38;;;17.56;81.03
48630;BME280;34426;52.180;4.462;2023-07-13T05:10:51;101508.97;;;17.66;80.82
48630;BME280;34426;52.180;4.462;2023-07-13T05:13:17;101509.91;;;17.80;80.18
48630;BME280;34426;52.180;4.462;2023-07-13T05:15:43;101520.56;;;17.88;79.64
48630;BME280;34426;52.180;4.462;2023-07-13T05:18:09;101523.94;;;17.90;79.76
48630;BME280;34426;52.180;4.462;2023-07-13T05:20:36;101528.09;;;17.98;77.93
48630;BME280;34426;52.180;4.462;2023-07-13T05:23:02;101519.56;;;18.03;78.34
48630;BME280;34426;52.180;4.462;2023-07-13T05:25:28;101526.59;;;18.06;78.93
48630;BME280;34426;52.180;4.462;2023-07-13T05:27:54;101531.59;;;18.14;78.10
48630;BME280;34426;52.180;4.462;2023-07-13T05:30:21;101530.69;;;18.18;77.85
48630;BME280;34426;52.180;4.462;2023-07-13T05:32:46;101520.41;;;18.22;77.44
48630;BME280;34426;52.180;4.462;2023-07-13T05:35:12;101526.31;;;18.26;76.61
48630;BME280;34426;52.180;4.462;2023-07-13T05:37:39;101531.38;;;18.29;75.19
48630;BME280;34426;52.180;4.462;2023-07-13T05:40:06;101533.59;;;18.32;74.97
48630;BME280;34426;52.180;4.462;2023-07-13T05:42:32;101538.97;;;18.34;74.57
48630;BME280;34426;52.180;4.462;2023-07-13T05:44:58;101541.25;;;18.32;74.29
48630;BME280;34426;52.180;4.462;2023-07-13T05:47:23;101544.88;;;18.37;74.68
48630;BME280;34426;52.180;4.462;2023-07-13T05:49:52;101540.34;;;18.36;74.49
48630;BME280;34426;52.180;4.462;2023-07-13T05:52:17;101560.31;;;18.26;76.67
48630;BME280;34426;52.180;4.462;2023-07-13T05:54:45;101557.72;;;17.82;81.72
48630;BME280;34426;52.180;4.462;2023-07-13T05:57:15;101550.97;;;17.49;83.86
48630;BME280;34426;52.180;4.462;2023-07-13T05:59:43;101554.63;;;17.20;84.11
48630;BME280;34426;52.180;4.462;2023-07-13T06:02:10;101563.22;;;17.05;85.16
48630;BME280;34426;52.180;4.462;2023-07-13T06:04:35;101559.31;;;16.96;85.08
48630;BME280;34426;52.180;4.462;2023-07-13T06:07:01;101561.59;;;16.94;85.29
48630;BME280;34426;52.180;4.462;2023-07-13T06:09:26;101573.00;;;16.84;84.82
48630;BME280;34426;52.180;4.462;2023-07-13T06:11:54;101568.44;;;16.88;83.82
48630;BME280;34426;52.180;4.462;2023-07-13T06:14:19;101576.94;;;16.88;83.62
48630;BME280;34426;52.180;4.462;2023-07-13T06:16:45;101576.38;;;16.86;84.04
48630;BME280;34426;52.180;4.462;2023-07-13T06:19:10;101576.03;;;16.92;83.73
48630;BME280;34426;52.180;4.462;2023-07-13T06:21:36;101588.94;;;17.04;82.83
48630;BME280;34426;52.180;4.462;2023-07-13T06:24:02;101579.53;;;17.18;81.41
48630;BME280;34426;52.180;4.462;2023-07-13T06:26:27;101580.84;;;17.31;79.81
48630;BME280;34426;52.180;4.462;2023-07-13T06:28:54;101585.75;;;17.49;78.62
48630;BME280;34426;52.180;4.462;2023-07-13T06:31:20;101575.44;;;17.63;77.73
48630;BME280;34426;52.180;4.462;2023-07-13T06:33:45;101577.81;;;17.80;77.83
48630;BME280;34426;52.180;4.462;2023-07-13T06:36:11;101583.81;;;18.03;78.28
48630;BME280;34426;52.180;4.462;2023-07-13T06:38:37;101582.38;;;18.05;75.53
48630;BME280;34426;52.180;4.462;2023-07-13T06:41:03;101591.59;;;18.16;74.41
48630;BME280;34426;52.180;4.462;2023-07-13T06:43:29;101591.66;;;18.35;75.03
48630;BME280;34426;52.180;4.462;2023-07-13T06:45:56;101600.31;;;18.43;72.72
48630;BME280;34426;52.180;4.462;2023-07-13T06:48:22;101600.31;;;18.43;72.19
48630;BME280;34426;52.180;4.462;2023-07-13T06:50:49;101596.34;;;18.44;71.40
48630;BME280;34426;52.180;4.462;2023-07-13T06:53:15;101598.63;;;18.42;71.67
48630;BME280;34426;52.180;4.462;2023-07-13T06:55:43;101599.47;;;18.43;72.39
48630;BME280;34426;52.180;4.462;2023-07-13T06:58:09;101603.22;;;18.38;71.42
48630;BME280;34426;52.180;4.462;2023-07-13T07:00:35;101606.94;;;18.34;73.31
48630;BME280;34426;52.180;4.462;2023-07-13T07:03:02;101607.78;;;18.34;73.41
48630;BME280;34426;52.180;4.462;2023-07-13T07:05:29;101613.56;;;18.24;72.48
48630;BME280;34426;52.180;4.462;2023-07-13T07:07:55;101611.28;;;18.26;73.01
48630;BME280;34426;52.180;4.462;2023-07-13T07:10:21;101611.59;;;18.24;71.96
48630;BME280;34426;52.180;4.462;2023-07-13T07:12:47;101616.09;;;18.25;70.16
48630;BME280;34426;52.180;4.462;2023-07-13T07:15:12;101622.63;;;18.26;69.95
48630;BME280;34426;52.180;4.462;2023-07-13T07:17:38;101619.72;;;18.31;70.54
48630;BME280;34426;52.180;4.462;2023-07-13T07:20:06;101613.47;;;18.34;70.56
48630;BME280;34426;52.180;4.462;2023-07-13T07:22:32;101611.28;;;18.50;71.03
48630;BME280;34426;52.180;4.462;2023-07-13T07:24:58;101605.59;;;18.74;69.43
48630;BME280;34426;52.180;4.462;2023-07-13T07:27:24;101614.38;;;18.96;68.88
48630;BME280;34426;52.180;4.462;2023-07-13T07:29:50;101612.72;;;19.09;66.20
48630;BME280;34426;52.180;4.462;2023-07-13T07:32:15;101620.31;;;19.13;64.63
48630;BME280;34426;52.180;4.462;2023-07-13T07:34:41;101627.06;;;19.17;64.92
48630;BME280;34426;52.180;4.462;2023-07-13T07:37:11;101627.69;;;19.14;66.74
48630;BME280;34426;52.180;4.462;2023-07-13T07:39:36;101635.44;;;19.27;68.16
48630;BME280;34426;52.180;4.462;2023-07-13T07:42:02;101632.13;;;19.20;68.47
48630;BME280;34426;52.180;4.462;2023-07-13T07:44:28;101636.13;;;19.38;67.87
48630;BME280;34426;52.180;4.462;2023-07-13T07:46:53;101638.34;;;19.41;65.75
48630;BME280;34426;52.180;4.462;2023-07-13T07:49:19;101641.28;;;19.50;67.74
48630;BME280;34426;52.180;4.462;2023-07-13T07:51:45;101641.63;;;19.48;67.91
48630;BME280;34426;52.180;4.462;2023-07-13T07:54:12;101636.09;;;19.57;68.57
48630;BME280;34426;52.180;4.462;2023-07-13T07:56:37;101645.38;;;19.63;68.28
48630;BME280;34426;52.180;4.462;2023-07-13T07:59:03;101640.88;;;19.43;68.12
48630;BME280;34426;52.180;4.462;2023-07-13T08:01:28;101645.94;;;19.27;69.44
48630;BME280;34426;52.180;4.462;2023-07-13T08:03:54;101655.28;;;19.27;69.98
48630;BME280;34426;52.180;4.462;2023-07-13T08:06:20;101652.53;;;19.22;69.85
48630;BME280;34426;52.180;4.462;2023-07-13T08:08:45;101652.59;;;19.17;70.30
48630;BME280;34426;52.180;4.462;2023-07-13T08:11:12;101647.38;;;19.24;70.12
48630;BME280;34426;52.180;4.462;2023-07-13T08:13:38;101665.03;;;19.03;70.36
48630;BME280;34426;52.180;4.462;2023-07-13T08:16:04;101656.72;;;18.87;71.50
48630;BME280;34426;52.180;4.462;2023-07-13T08:18:30;101669.53;;;18.85;71.94
48630;BME280;34426;52.180;4.462;2023-07-13T08:20:56;101660.22;;;18.79;73.05
48630;BME280;34426;52.180;4.462;2023-07-13T08:23:22;101662.16;;;18.84;72.00
48630;BME280;34426;52.180;4.462;2023-07-13T08:25:51;101651.44;;;18.81;71.00
48630;BME280;34426;52.180;4.462;2023-07-13T08:28:18;101662.53;;;18.77;70.94
48630;BME280;34426;52.180;4.462;2023-07-13T08:30:44;101654.03;;;18.77;70.02
48630;BME280;34426;52.180;4.462;2023-07-13T08:33:10;101655.03;;;18.86;70.86
48630;BME280;34426;52.180;4.462;2023-07-13T08:35:35;101652.22;;;19.05;70.72
48630;BME280;34426;52.180;4.462;2023-07-13T08:38:01;101650.00;;;19.21;69.91
48630;BME280;34426;52.180;4.462;2023-07-13T08:40:27;101663.97;;;19.36;68.51
48630;BME280;34426;52.180;4.462;2023-07-13T08:42:54;101657.59;;;19.25;69.13
48630;BME280;34426;52.180;4.462;2023-07-13T08:45:24;101661.78;;;19.09;69.64
48630;BME280;34426;52.180;4.462;2023-07-13T08:47:54;101659.97;;;19.00;69.96
48630;BME280;34426;52.180;4.462;2023-07-13T08:50:27;101663.41;;;19.15;70.17
48630;BME280;34426;52.180;4.462;2023-07-13T08:52:55;101666.25;;;19.34;67.50
48630;BME280;34426;52.180;4.462;2023-07-13T08:55:25;101664.66;;;19.47;66.93
48630;BME280;34426;52.180;4.462;2023-07-13T08:57:56;101666.56;;;19.51;66.19
48630;BME280;34426;52.180;4.462;2023-07-13T09:00:34;101682.91;;;19.41;65.76
48630;BME280;34426;52.180;4.462;2023-07-13T09:03:03;101668.31;;;19.28;67.29
48630;BME280;34426;52.180;4.462;2023-07-13T09:05:35;101669.53;;;19.22;68.14
48630;BME280;34426;52.180;4.462;2023-07-13T09:08:30;101683.66;;;19.27;68.05
48630;BME280;34426;52.180;4.462;2023-07-13T09:11:03;101677.13;;;19.27;68.57
48630;BME280;34426;52.180;4.462;2023-07-13T09:13:39;101673.28;;;19.18;68.57
48630;BME280;34426;52.180;4.462;2023-07-13T09:16:10;101674.28;;;19.08;69.29
48630;BME280;34426;52.180;4.462;2023-07-13T09:18:38;101678.81;;;19.09;69.33
48630;BME280;34426;52.180;4.462;2023-07-13T09:21:10;101682.41;;;19.15;68.63
48630;BME280;34426;52.180;4.462;2023-07-13T09:23:37;101673.00;;;19.19;68.99
48630;BME280;34426;52.180;4.462;2023-07-13T09:26:07;101672.69;;;19.40;68.38
48630;BME280;34426;52.180;4.462;2023-07-13T09:28:38;101669.66;;;19.50;68.40
48630;BME280;34426;52.180;4.462;2023-07-13T09:31:08;101693.47;;;19.54;67.94
48630;BME280;34426;52.180;4.462;2023-07-13T09:33:37;101693.47;;;19.35;68.44
48630;BME280;34426;52.180;4.462;2023-07-13T09:36:17;101687.25;;;19.33;68.11
48630;BME280;34426;52.180;4.462;2023-07-13T09:38:43;101708.59;;;19.31;68.02
48630;BME280;34426;52.180;4.462;2023-07-13T09:41:19;101704.66;;;19.26;68.50
48630;BME280;34426;52.180;4.462;2023-07-13T09:44:18;101694.31;;;19.36;69.45
48630;BME280;34426;52.180;4.462;2023-07-13T09:46:45;101696.31;;;19.73;68.42
48630;BME280;34426;52.180;4.462;2023-07-13T09:49:13;101697.59;;;19.80;67.06
48630;BME280;34426;52.180;4.462;2023-07-13T09:51:41;101695.75;;;19.89;67.06
48630;BME280;34426;52.180;4.462;2023-07-13T09:54:18;101703.97;;;20.05;66.71
48630;BME280;34426;52.180;4.462;2023-07-13T09:56:44;101700.75;;;19.79;66.57
48630;BME280;34426;52.180;4.462;2023-07-13T09:59:18;101711.28;;;19.78;68.04
48630;BME280;34426;52.180;4.462;2023-07-13T10:01:44;101721.38;;;19.84;67.81
48630;BME280;34426;52.180;4.462;2023-07-13T10:04:11;101724.94;;;19.76;66.74
48630;BME280;34426;52.180;4.462;2023-07-13T10:06:39;101722.72;;;19.73;66.88
48630;BME280;34426;52.180;4.462;2023-07-13T10:09:07;101733.38;;;19.81;66.98
48630;BME280;34426;52.180;4.462;2023-07-13T10:11:35;101729.91;;;19.84;66.41
48630;BME280;34426;52.180;4.462;2023-07-13T10:14:02;101731.75;;;20.08;65.64
48630;BME280;34426;52.180;4.462;2023-07-13T10:16:30;101735.94;;;20.29;64.28
48630;BME280;34426;52.180;4.462;2023-07-13T10:18:58;101745.97;;;20.08;64.30
48630;BME280;34426;52.180;4.462;2023-07-13T10:21:27;101740.28;;;19.75;65.27
48630;BME280;34426;52.180;4.462;2023-07-13T10:23:58;101751.78;;;19.65;66.37
48630;BME280;34426;52.180;4.462;2023-07-13T10:26:32;101778.72;;;19.86;65.47
48630;BME280;34426;52.180;4.462;2023-07-13T10:29:02;101767.19;;;19.59;65.82
48630;BME280;34426;52.180;4.462;2023-07-13T10:31:30;101763.28;;;19.92;65.28
48630;BME280;34426;52.180;4.462;2023-07-13T10:33:56;101751.25;;;20.14;65.61
48630;BME280;34426;52.180;4.462;2023-07-13T10:36:32;101758.25;;;20.03;65.78
48630;BME280;34426;52.180;4.462;2023-07-13T10:39:03;101766.38;;;19.77;65.27
48630;BME280;34426;52.180;4.462;2023-07-13T10:41:32;101775.41;;;19.79;65.63
48630;BME280;34426;52.180;4.462;2023-07-13T10:43:59;101759.38;;;20.21;65.16
48630;BME280;34426;52.180;4.462;2023-07-13T10:46:27;101767.16;;;20.48;64.58
48630;BME280;34426;52.180;4.462;2023-07-13T10:48:56;101758.28;;;20.36;64.89
48630;BME280;34426;52.180;4.462;2023-07-13T10:51:23;101767.91;;;20.53;64.62
48630;BME280;34426;52.180;4.462;2023-07-13T10:54:12;101773.50;;;20.26;64.37
48630;BME280;34426;52.180;4.462;2023-07-13T10:56:40;101775.38;;;20.49;64.19
48630;BME280;34426;52.180;4.462;2023-07-13T10:59:11;101775.53;;;20.72;63.79
48630;BME280;34426;52.180;4.462;2023-07-13T11:01:46;101777.41;;;20.30;64.36
48630;BME280;34426;52.180;4.462;2023-07-13T11:04:14;101787.44;;;20.09;64.98
48630;BME280;34426;52.180;4.462;2023-07-13T11:06:41;101780.75;;;20.00;65.97
48630;BME280;34426;52.180;4.462;2023-07-13T11:09:39;101766.59;;;19.81;66.09
48630;BME280;34426;52.180;4.462;2023-07-13T11:12:27;101767.72;;;20.31;65.77
48630;BME280;34426;52.180;4.462;2023-07-13T11:15:11;101767.09;;;20.67;64.29
48630;BME280;34426;52.180;4.462;2023-07-13T11:17:47;101770.03;;;20.62;64.23
48630;BME280;34426;52.180;4.462;2023-07-13T11:20:31;101781.19;;;20.58;64.13
48630;BME280;34426;52.180;4.462;2023-07-13T11:23:18;101767.63;;;20.82;63.91
48630;BME280;34426;52.180;4.462;2023-07-13T11:25:46;101774.28;;;21.05;63.27
48630;BME280;34426;52.180;4.462;2023-07-13T11:28:17;101779.84;;;21.10;61.85
48630;BME280;34426;52.180;4.462;2023-07-13T11:30:45;101775.75;;;21.16;61.52
48630;BME280;34426;52.180;4.462;2023-07-13T11:33:15;101773.31;;;20.96;62.48
48630;BME280;34426;52.180;4.462;2023-07-13T11:35:50;101782.47;;;20.66;63.63
48630;BME280;34426;52.180;4.462;2023-07-13T11:38:19;101782.31;;;20.43;64.21
48630;BME280;34426;52.180;4.462;2023-07-13T11:40:48;101784.13;;;20.53;64.19
48630;BME280;34426;52.180;4.462;2023-07-13T11:43:16;101785.41;;;20.61;65.58
48630;BME280;34426;52.180;4.462;2023-07-13T11:45:42;101785.66;;;20.78;64.92
48630;BME280;34426;52.180;4.462;2023-07-13T11:48:19;101788.78;;;20.90;63.61
48630;BME280;34426;52.180;4.462;2023-07-13T11:50:50;101794.59;;;20.85;64.02
48630;BME280;34426;52.180;4.462;2023-07-13T11:53:16;101784.59;;;21.01;62.53
48630;BME280;34426;52.180;4.462;2023-07-13T11:55:47;101794.06;;;20.83;63.70
48630;BME280;34426;52.180;4.462;2023-07-13T11:58:18;101799.34;;;21.03;63.46
48630;BME280;34426;52.180;4.462;2023-07-13T12:00:45;101807.38;;;21.42;62.46
48630;BME280;34426;52.180;4.462;2023-07-13T12:03:11;101791.31;;;21.60;61.82
48630;BME280;34426;52.180;4.462;2023-07-13T12:05:55;101809.25;;;21.61;62.24
48630;BME280;34426;52.180;4.462;2023-07-13T12:08:20;101805.06;;;21.80;60.45
48630;BME280;34426;52.180;4.462;2023-07-13T12:10:47;101799.00;;;21.96;59.55
48630;BME280;34426;52.180;4.462;2023-07-13T12:13:13;101795.00;;;21.97;59.46
48630;BME280;34426;52.180;4.462;2023-07-13T12:15:41;101805.03;;;21.44;58.80
48630;BME280;34426;52.180;4.462;2023-07-13T12:18:12;101812.84;;;21.39;60.42
48630;BME280;34426;52.180;4.462;2023-07-13T12:20:39;101812.53;;;21.27;61.25
48630;BME280;34426;52.180;4.462;2023-07-13T12:23:05;101796.38;;;20.95;61.57
48630;BME280;34426;52.180;4.462;2023-07-13T12:25:32;101807.38;;;21.29;61.11
48630;BME280;34426;52.180;4.462;2023-07-13T12:27:59;101801.47;;;21.39;60.24
48630;BME280;34426;52.180;4.462;2023-07-13T12:30:28;101808.72;;;21.45;60.13
48630;BME280;34426;52.180;4.462;2023-07-13T12:33:01;101803.13;;;21.53;59.79
48630;BME280;34426;52.180;4.462;2023-07-13T12:35:29;101799.47;;;21.12;60.46
48630;BME280;34426;52.180;4.462;2023-07-13T12:37:57;101807.88;;;21.44;59.63
48630;BME280;34426;52.180;4.462;2023-07-13T12:40:26;101815.59;;;21.44;58.45
48630;BME280;34426;52.180;4.462;2023-07-13T12:42:52;101800.50;;;21.02;59.92
48630;BME280;34426;52.180;4.462;2023-07-13T12:45:21;101807.56;;;21.46;59.13
48630;BME280;34426;52.180;4.462;2023-07-13T12:47:48;101808.75;;;21.81;58.76
48630;BME280;34426;52.180;4.462;2023-07-13T12:50:16;101798.53;;;22.16;58.03
48630;BME280;34426;52.180;4.462;2023-07-13T12:52:44;101798.84;;;21.78;57.05
48630;BME280;34426;52.180;4.462;2023-07-13T12:55:13;101800.00;;;21.77;58.27